sensor_id;sensor_type;location;lat;lon;timestamp;P1;durP1;ratioP1;P2;durP2;ratioP2
30934;SDS011;51033;42.648;23.292;2023-04-24T00:01:25;15.98;;;9.85;;
30934;SDS011;51033;42.648;23.292;2023-04-24T00:03:51;10.88;;;9.25;;
30934;SDS011;51033;42.648;23.292;2023-04-24T00:06:17;15.30;;;9.98;;
30934;SDS011;51033;42.648;23.292;2023-04-24T00:08:42;18.85;;;10.38;;
30934;SDS011;51033;42.648;23.292;2023-04-24T00:11:08;11.38;;;9.38;;
30934;SDS011;51033;42.648;23.292;2023-04-24T00:13:34;11.60;;;9.60;;
30934;SDS011;51033;42.648;23.292;2023-04-24T00:16:00;12.82;;;10.25;;
30934;SDS011;51033;42.648;23.292;2023-04-24T00:18:26;15.65;;;9.50;;
30934;SDS011;51033;42.648;23.292;2023-04-24T00:20:51;9.95;;;8.95;;
30934;SDS011;51033;42.648;23.292;2023-04-24T00:23:17;13.18;;;9.23;;
30934;SDS011;51033;42.648;23.292;2023-04-24T00:25:42;11.52;;;9.73;;
30934;SDS011;51033;42.648;23.292;2023-04-24T00:28:07;12.27;;;8.90;;
30934;SDS011;51033;42.648;23.292;2023-04-24T00:30:33;12.25;;;9.35;;
30934;SDS011;51033;42.648;23.292;2023-04-24T00:32:58;12.63;;;10.02;;
30934;SDS011;51033;42.648;23.292;2023-04-24T00:35:23;11.00;;;8.90;;
30934;SDS011;51033;42.648;23.292;2023-04-24T00:37:49;12.05;;;9.13;;
30934;SDS011;51033;42.648;23.292;2023-04-24T00:40:15;11.95;;;9.55;;
30934;SDS011;51033;42.648;23.292;2023-04-24T00:42:40;12.18;;;9.38;;
30934;SDS011;51033;42.648;23.292;2023-04-24T00:45:06;13.40;;;9.82;;
30934;SDS011;51033;42.648;23.292;2023-04-24T00:47:33;10.85;;;9.75;;
30934;SDS011;51033;42.648;23.292;2023-04-24T00:50:00;13.13;;;9.45;;
30934;SDS011;51033;42.648;23.292;2023-04-24T00:52:27;11.43;;;9.32;;
30934;SDS011;51033;42.648;23.292;2023-04-24T00:54:53;10.63;;;9.23;;
30934;SDS011;51033;42.648;23.292;2023-04-24T00:57:18;13.30;;;9.20;;
30934;SDS011;51033;42.648;23.292;2023-04-24T00:59:44;9.55;;;8.52;;
30934;SDS011;51033;42.648;23.292;2023-04-24T01:02:10;13.85;;;9.50;;
30934;SDS011;51033;42.648;23.292;2023-04-24T01:04:36;17.85;;;10.00;;
30934;SDS011;51033;42.648;23.292;2023-04-24T01:07:02;10.68;;;9.55;;
30934;SDS011;51033;42.648;23.292;2023-04-24T01:09:29;16.20;;;10.48;;
30934;SDS011;51033;42.648;23.292;2023-04-24T01:11:55;10.15;;;9.07;;
30934;SDS011;51033;42.648;23.292;2023-04-24T01:14:21;10.73;;;9.55;;
30934;SDS011;51033;42.648;23.292;2023-04-24T01:16:47;16.55;;;11.13;;
30934;SDS011;51033;42.648;23.292;2023-04-24T01:19:12;15.57;;;11.43;;
30934;SDS011;51033;42.648;23.292;2023-04-24T01:21:41;12.07;;;10.80;;
30934;SDS011;51033;42.648;23.292;2023-04-24T01:24:08;16.20;;;10.40;;
30934;SDS011;51033;42.648;23.292;2023-04-24T01:26:35;16.23;;;12.18;;
30934;SDS011;51033;42.648;23.292;2023-04-24T01:29:01;14.52;;;10.35;;
30934;SDS011;51033;42.648;23.292;2023-04-24T01:31:26;13.98;;;11.70;;
30934;SDS011;51033;42.648;23.292;2023-04-24T01:33:52;13.48;;;10.88;;
30934;SDS011;51033;42.648;23.292;2023-04-24T01:36:18;16.38;;;11.45;;
30934;SDS011;51033;42.648;23.292;2023-04-24T01:38:44;16.52;;;12.30;;
30934;SDS011;51033;42.648;23.292;2023-04-24T01:41:10;14.05;;;11.38;;
30934;SDS011;51033;42.648;23.292;2023-04-24T01:43:35;14.57;;;11.52;;
30934;SDS011;51033;42.648;23.292;2023-04-24T01:46:00;12.93;;;10.85;;
30934;SDS011;51033;42.648;23.292;2023-04-24T01:48:26;11.75;;;10.35;;
30934;SDS011;51033;42.648;23.292;2023-04-24T01:50:52;11.10;;;9.73;;
30934;SDS011;51033;42.648;23.292;2023-04-24T01:53:17;13.00;;;11.05;;
30934;SDS011;51033;42.648;23.292;2023-04-24T01:55:43;14.02;;;10.32;;
30934;SDS011;51033;42.648;23.292;2023-04-24T01:58:08;13.48;;;10.88;;
30934;SDS011;51033;42.648;23.292;2023-04-24T02:00:34;15.57;;;10.75;;
30934;SDS011;51033;42.648;23.292;2023-04-24T02:03:00;16.10;;;11.82;;
30934;SDS011;51033;42.648;23.292;2023-04-24T02:05:26;13.10;;;9.82;;
30934;SDS011;51033;42.648;23.292;2023-04-24T02:07:52;10.90;;;9.65;;
30934;SDS011;51033;42.648;23.292;2023-04-24T02:10:17;14.98;;;9.02;;
30934;SDS011;51033;42.648;23.292;2023-04-24T02:12:43;13.00;;;9.77;;
30934;SDS011;51033;42.648;23.292;2023-04-24T02:15:08;14.13;;;9.85;;
30934;SDS011;51033;42.648;23.292;2023-04-24T02:17:34;13.55;;;9.77;;
30934;SDS011;51033;42.648;23.292;2023-04-24T02:19:59;13.02;;;9.00;;
30934;SDS011;51033;42.648;23.292;2023-04-24T02:22:25;12.63;;;9.68;;
30934;SDS011;51033;42.648;23.292;2023-04-24T02:24:50;13.80;;;9.35;;
30934;SDS011;51033;42.648;23.292;2023-04-24T02:27:16;9.85;;;8.88;;
30934;SDS011;51033;42.648;23.292;2023-04-24T02:29:41;8.27;;;7.47;;
30934;SDS011;51033;42.648;23.292;2023-04-24T02:32:07;9.02;;;8.18;;
30934;SDS011;51033;42.648;23.292;2023-04-24T02:34:36;12.75;;;8.68;;
30934;SDS011;51033;42.648;23.292;2023-04-24T02:37:01;10.38;;;9.02;;
30934;SDS011;51033;42.648;23.292;2023-04-24T02:39:29;14.23;;;9.82;;
30934;SDS011;51033;42.648;23.292;2023-04-24T02:41:55;10.55;;;8.88;;
30934;SDS011;51033;42.648;23.292;2023-04-24T02:44:20;12.65;;;9.98;;
30934;SDS011;51033;42.648;23.292;2023-04-24T02:46:46;11.70;;;9.38;;
30934;SDS011;51033;42.648;23.292;2023-04-24T02:49:12;12.45;;;9.27;;
30934;SDS011;51033;42.648;23.292;2023-04-24T02:51:37;14.13;;;10.48;;
30934;SDS011;51033;42.648;23.292;2023-04-24T02:54:05;12.73;;;9.77;;
30934;SDS011;51033;42.648;23.292;2023-04-24T02:56:31;12.93;;;9.40;;
30934;SDS011;51033;42.648;23.292;2023-04-24T02:58:57;10.75;;;9.05;;
30934;SDS011;51033;42.648;23.292;2023-04-24T03:01:22;10.40;;;8.93;;
30934;SDS011;51033;42.648;23.292;2023-04-24T03:03:47;12.35;;;9.38;;
30934;SDS011;51033;42.648;23.292;2023-04-24T03:06:13;12.45;;;9.65;;
30934;SDS011;51033;42.648;23.292;2023-04-24T03:08:38;9.30;;;8.23;;
30934;SDS011;51033;42.648;23.292;2023-04-24T03:11:03;11.48;;;8.30;;
30934;SDS011;51033;42.648;23.292;2023-04-24T03:13:29;11.52;;;8.52;;
30934;SDS011;51033;42.648;23.292;2023-04-24T03:15:54;11.40;;;8.90;;
30934;SDS011;51033;42.648;23.292;2023-04-24T03:18:20;11.27;;;9.35;;
30934;SDS011;51033;42.648;23.292;2023-04-24T03:20:45;10.15;;;8.68;;
30934;SDS011;51033;42.648;23.292;2023-04-24T03:23:12;13.10;;;8.45;;
30934;SDS011;51033;42.648;23.292;2023-04-24T03:25:37;13.43;;;9.30;;
30934;SDS011;51033;42.648;23.292;2023-04-24T03:28:03;10.80;;;9.57;;
30934;SDS011;51033;42.648;23.292;2023-04-24T03:30:29;14.00;;;8.95;;
30934;SDS011;51033;42.648;23.292;2023-04-24T03:32:55;10.18;;;8.98;;
30934;SDS011;51033;42.648;23.292;2023-04-24T03:35:20;11.93;;;9.18;;
30934;SDS011;51033;42.648;23.292;2023-04-24T03:37:47;11.43;;;9.35;;
30934;SDS011;51033;42.648;23.292;2023-04-24T03:40:12;10.93;;;9.18;;
30934;SDS011;51033;42.648;23.292;2023-04-24T03:42:37;14.27;;;9.23;;
30934;SDS011;51033;42.648;23.292;2023-04-24T03:45:03;12.07;;;9.60;;
30934;SDS011;51033;42.648;23.292;2023-04-24T03:47:28;10.93;;;9.05;;
30934;SDS011;51033;42.648;23.292;2023-04-24T03:49:54;14.38;;;10.40;;
30934;SDS011;51033;42.648;23.292;2023-04-24T03:52:20;11.23;;;8.95;;
30934;SDS011;51033;42.648;23.292;2023-04-24T03:54:46;13.10;;;10.23;;
30934;SDS011;51033;42.648;23.292;2023-04-24T03:57:11;13.55;;;9.27;;
30934;SDS011;51033;42.648;23.292;2023-04-24T03:59:37;14.02;;;9.65;;
30934;SDS011;51033;42.648;23.292;2023-04-24T04:02:02;12.02;;;9.98;;
30934;SDS011;51033;42.648;23.292;2023-04-24T04:04:27;15.10;;;9.32;;
30934;SDS011;51033;42.648;23.292;2023-04-24T04:06:53;12.23;;;9.52;;
30934;SDS011;51033;42.648;23.292;2023-04-24T04:09:18;15.25;;;10.32;;
30934;SDS011;51033;42.648;23.292;2023-04-24T04:11:44;10.20;;;9.07;;
30934;SDS011;51033;42.648;23.292;2023-04-24T04:14:09;13.98;;;9.30;;
30934;SDS011;51033;42.648;23.292;2023-04-24T04:16:34;14.32;;;9.55;;
30934;SDS011;51033;42.648;23.292;2023-04-24T04:19:01;12.32;;;10.00;;
30934;SDS011;51033;42.648;23.292;2023-04-24T04:21:28;15.90;;;9.63;;
30934;SDS011;51033;42.648;23.292;2023-04-24T04:23:53;10.88;;;9.73;;
30934;SDS011;51033;42.648;23.292;2023-04-24T04:26:19;11.23;;;9.35;;
30934;SDS011;51033;42.648;23.292;2023-04-24T04:28:46;13.85;;;9.05;;
30934;SDS011;51033;42.648;23.292;2023-04-24T04:31:12;14.45;;;10.40;;
30934;SDS011;51033;42.648;23.292;2023-04-24T04:33:38;11.02;;;8.88;;
30934;SDS011;51033;42.648;23.292;2023-04-24T04:36:04;12.05;;;9.70;;
30934;SDS011;51033;42.648;23.292;2023-04-24T04:38:30;15.40;;;10.23;;
30934;SDS011;51033;42.648;23.292;2023-04-24T04:40:55;10.20;;;8.90;;
30934;SDS011;51033;42.648;23.292;2023-04-24T04:43:24;14.05;;;9.75;;
30934;SDS011;51033;42.648;23.292;2023-04-24T04:45:49;14.60;;;10.00;;
30934;SDS011;51033;42.648;23.292;2023-04-24T04:48:16;23.20;;;10.32;;
30934;SDS011;51033;42.648;23.292;2023-04-24T04:50:43;16.42;;;9.95;;
30934;SDS011;51033;42.648;23.292;2023-04-24T04:53:09;12.93;;;9.27;;
30934;SDS011;51033;42.648;23.292;2023-04-24T04:55:37;18.05;;;10.60;;
30934;SDS011;51033;42.648;23.292;2023-04-24T04:58:03;24.02;;;9.90;;
30934;SDS011;51033;42.648;23.292;2023-04-24T05:00:28;19.95;;;10.60;;
30934;SDS011;51033;42.648;23.292;2023-04-24T05:02:58;17.55;;;10.38;;
30934;SDS011;51033;42.648;23.292;2023-04-24T05:05:24;15.43;;;12.55;;
30934;SDS011;51033;42.648;23.292;2023-04-24T05:07:49;16.10;;;11.48;;
30934;SDS011;51033;42.648;23.292;2023-04-24T05:10:14;14.90;;;11.52;;
30934;SDS011;51033;42.648;23.292;2023-04-24T05:12:40;14.73;;;10.38;;
30934;SDS011;51033;42.648;23.292;2023-04-24T05:15:05;12.48;;;10.38;;
30934;SDS011;51033;42.648;23.292;2023-04-24T05:17:31;15.88;;;10.70;;
30934;SDS011;51033;42.648;23.292;2023-04-24T05:19:57;12.88;;;10.18;;
30934;SDS011;51033;42.648;23.292;2023-04-24T05:22:22;12.02;;;8.82;;
30934;SDS011;51033;42.648;23.292;2023-04-24T05:24:48;13.35;;;10.07;;
30934;SDS011;51033;42.648;23.292;2023-04-24T05:27:14;13.15;;;9.85;;
30934;SDS011;51033;42.648;23.292;2023-04-24T05:29:40;15.85;;;9.88;;
30934;SDS011;51033;42.648;23.292;2023-04-24T05:32:05;18.45;;;10.60;;
30934;SDS011;51033;42.648;23.292;2023-04-24T05:34:31;21.92;;;11.95;;
30934;SDS011;51033;42.648;23.292;2023-04-24T05:36:57;17.00;;;11.45;;
30934;SDS011;51033;42.648;23.292;2023-04-24T05:39:22;14.95;;;11.02;;
30934;SDS011;51033;42.648;23.292;2023-04-24T05:41:49;22.35;;;11.85;;
30934;SDS011;51033;42.648;23.292;2023-04-24T05:44:15;15.20;;;11.98;;
30934;SDS011;51033;42.648;23.292;2023-04-24T05:46:41;18.23;;;11.70;;
30934;SDS011;51033;42.648;23.292;2023-04-24T05:49:06;19.48;;;12.98;;
30934;SDS011;51033;42.648;23.292;2023-04-24T05:51:31;19.33;;;11.25;;
30934;SDS011;51033;42.648;23.292;2023-04-24T05:53:57;15.43;;;11.45;;
30934;SDS011;51033;42.648;23.292;2023-04-24T05:56:22;17.60;;;11.65;;
30934;SDS011;51033;42.648;23.292;2023-04-24T05:58:48;20.05;;;10.95;;
30934;SDS011;51033;42.648;23.292;2023-04-24T06:01:14;22.40;;;11.27;;
30934;SDS011;51033;42.648;23.292;2023-04-24T06:03:40;18.17;;;10.65;;
30934;SDS011;51033;42.648;23.292;2023-04-24T06:06:06;18.77;;;10.43;;
30934;SDS011;51033;42.648;23.292;2023-04-24T06:08:32;16.63;;;10.48;;
30934;SDS011;51033;42.648;23.292;2023-04-24T06:10:57;16.40;;;10.82;;
30934;SDS011;51033;42.648;23.292;2023-04-24T06:13:23;18.15;;;9.63;;
30934;SDS011;51033;42.648;23.292;2023-04-24T06:15:48;12.57;;;9.88;;
30934;SDS011;51033;42.648;23.292;2023-04-24T06:18:14;15.55;;;9.32;;
30934;SDS011;51033;42.648;23.292;2023-04-24T06:20:41;17.75;;;10.35;;
30934;SDS011;51033;42.648;23.292;2023-04-24T06:23:07;13.02;;;9.38;;
30934;SDS011;51033;42.648;23.292;2023-04-24T06:25:32;18.15;;;9.55;;
30934;SDS011;51033;42.648;23.292;2023-04-24T06:27:58;12.60;;;9.95;;
30934;SDS011;51033;42.648;23.292;2023-04-24T06:30:23;13.20;;;9.18;;
30934;SDS011;51033;42.648;23.292;2023-04-24T06:32:49;17.95;;;9.48;;
30934;SDS011;51033;42.648;23.292;2023-04-24T06:35:15;14.27;;;8.93;;
30934;SDS011;51033;42.648;23.292;2023-04-24T06:37:42;11.68;;;8.43;;
30934;SDS011;51033;42.648;23.292;2023-04-24T06:40:07;28.65;;;9.32;;
30934;SDS011;51033;42.648;23.292;2023-04-24T06:42:33;13.52;;;8.75;;
30934;SDS011;51033;42.648;23.292;2023-04-24T06:45:00;12.15;;;8.23;;
30934;SDS011;51033;42.648;23.292;2023-04-24T06:47:25;12.20;;;8.88;;
30934;SDS011;51033;42.648;23.292;2023-04-24T06:49:50;13.40;;;10.05;;
30934;SDS011;51033;42.648;23.292;2023-04-24T06:52:17;14.48;;;9.60;;
30934;SDS011;51033;42.648;23.292;2023-04-24T06:54:43;10.52;;;8.85;;
30934;SDS011;51033;42.648;23.292;2023-04-24T06:57:09;15.75;;;9.38;;
30934;SDS011;51033;42.648;23.292;2023-04-24T06:59:35;14.25;;;9.63;;
30934;SDS011;51033;42.648;23.292;2023-04-24T07:02:01;12.15;;;9.07;;
30934;SDS011;51033;42.648;23.292;2023-04-24T07:04:26;19.25;;;11.15;;
30934;SDS011;51033;42.648;23.292;2023-04-24T07:06:52;14.57;;;9.95;;
30934;SDS011;51033;42.648;23.292;2023-04-24T07:09:20;12.98;;;8.88;;
30934;SDS011;51033;42.648;23.292;2023-04-24T07:11:47;13.73;;;9.38;;
30934;SDS011;51033;42.648;23.292;2023-04-24T07:14:13;19.35;;;10.48;;
30934;SDS011;51033;42.648;23.292;2023-04-24T07:16:39;15.80;;;9.75;;
30934;SDS011;51033;42.648;23.292;2023-04-24T07:19:04;16.08;;;10.18;;
30934;SDS011;51033;42.648;23.292;2023-04-24T07:21:30;11.18;;;8.90;;
30934;SDS011;51033;42.648;23.292;2023-04-24T07:23:57;13.35;;;9.18;;
30934;SDS011;51033;42.648;23.292;2023-04-24T07:26:23;11.60;;;6.75;;
30934;SDS011;51033;42.648;23.292;2023-04-24T07:28:48;9.68;;;7.28;;
30934;SDS011;51033;42.648;23.292;2023-04-24T07:31:13;9.70;;;6.75;;
30934;SDS011;51033;42.648;23.292;2023-04-24T07:33:39;8.35;;;6.15;;
30934;SDS011;51033;42.648;23.292;2023-04-24T07:36:05;10.55;;;7.28;;
30934;SDS011;51033;42.648;23.292;2023-04-24T07:38:30;10.60;;;7.72;;
30934;SDS011;51033;42.648;23.292;2023-04-24T07:40:56;15.70;;;9.48;;
30934;SDS011;51033;42.648;23.292;2023-04-24T07:43:22;22.75;;;10.20;;
30934;SDS011;51033;42.648;23.292;2023-04-24T07:45:48;13.90;;;10.10;;
30934;SDS011;51033;42.648;23.292;2023-04-24T07:48:15;13.70;;;8.95;;
30934;SDS011;51033;42.648;23.292;2023-04-24T07:50:42;11.40;;;8.82;;
30934;SDS011;51033;42.648;23.292;2023-04-24T07:53:08;13.95;;;8.85;;
30934;SDS011;51033;42.648;23.292;2023-04-24T07:55:33;13.52;;;8.68;;
30934;SDS011;51033;42.648;23.292;2023-04-24T07:57:59;13.85;;;9.18;;
30934;SDS011;51033;42.648;23.292;2023-04-24T08:00:25;12.70;;;8.45;;
30934;SDS011;51033;42.648;23.292;2023-04-24T08:02:50;12.10;;;8.52;;
30934;SDS011;51033;42.648;23.292;2023-04-24T08:05:16;15.30;;;9.60;;
30934;SDS011;51033;42.648;23.292;2023-04-24T08:07:41;16.15;;;10.00;;
30934;SDS011;51033;42.648;23.292;2023-04-24T08:10:09;13.82;;;9.88;;
30934;SDS011;51033;42.648;23.292;2023-04-24T08:12:35;15.43;;;9.40;;
30934;SDS011;51033;42.648;23.292;2023-04-24T08:15:01;11.05;;;8.90;;
30934;SDS011;51033;42.648;23.292;2023-04-24T08:17:27;11.10;;;9.43;;
30934;SDS011;51033;42.648;23.292;2023-04-24T08:19:52;10.93;;;8.52;;
30934;SDS011;51033;42.648;23.292;2023-04-24T08:22:24;16.98;;;9.68;;
30934;SDS011;51033;42.648;23.292;2023-04-24T08:24:49;17.02;;;9.27;;
30934;SDS011;51033;42.648;23.292;2023-04-24T08:27:14;15.40;;;8.27;;
30934;SDS011;51033;42.648;23.292;2023-04-24T08:29:40;17.80;;;9.70;;
30934;SDS011;51033;42.648;23.292;2023-04-24T08:32:05;19.80;;;11.43;;
30934;SDS011;51033;42.648;23.292;2023-04-24T08:34:31;14.88;;;10.68;;
30934;SDS011;51033;42.648;23.292;2023-04-24T08:36:56;12.18;;;9.20;;
30934;SDS011;51033;42.648;23.292;2023-04-24T08:39:22;11.85;;;9.23;;
30934;SDS011;51033;42.648;23.292;2023-04-24T08:41:47;20.60;;;9.98;;
30934;SDS011;51033;42.648;23.292;2023-04-24T08:44:13;12.07;;;9.15;;
30934;SDS011;51033;42.648;23.292;2023-04-24T08:46:41;14.75;;;9.05;;
30934;SDS011;51033;42.648;23.292;2023-04-24T08:49:09;12.27;;;9.07;;
30934;SDS011;51033;42.648;23.292;2023-04-24T08:51:35;13.40;;;9.05;;
30934;SDS011;51033;42.648;23.292;2023-04-24T08:54:02;11.52;;;9.05;;
30934;SDS011;51033;42.648;23.292;2023-04-24T08:56:28;17.15;;;9.23;;
30934;SDS011;51033;42.648;23.292;2023-04-24T08:58:56;14.52;;;8.93;;
30934;SDS011;51033;42.648;23.292;2023-04-24T09:01:22;14.80;;;8.30;;
30934;SDS011;51033;42.648;23.292;2023-04-24T09:03:50;14.75;;;9.50;;
30934;SDS011;51033;42.648;23.292;2023-04-24T09:06:21;9.68;;;7.53;;
30934;SDS011;51033;42.648;23.292;2023-04-24T09:08:48;13.50;;;8.60;;
30934;SDS011;51033;42.648;23.292;2023-04-24T09:11:18;22.60;;;8.85;;
30934;SDS011;51033;42.648;23.292;2023-04-24T09:13:43;11.30;;;8.75;;
30934;SDS011;51033;42.648;23.292;2023-04-24T09:16:10;10.15;;;9.07;;
30934;SDS011;51033;42.648;23.292;2023-04-24T09:18:36;14.65;;;7.20;;
30934;SDS011;51033;42.648;23.292;2023-04-24T09:21:02;18.75;;;8.95;;
30934;SDS011;51033;42.648;23.292;2023-04-24T09:23:30;13.13;;;8.90;;
30934;SDS011;51033;42.648;23.292;2023-04-24T09:25:57;11.60;;;9.05;;
30934;SDS011;51033;42.648;23.292;2023-04-24T09:28:27;10.98;;;8.20;;
30934;SDS011;51033;42.648;23.292;2023-04-24T09:33:29;12.98;;;8.30;;
30934;SDS011;51033;42.648;23.292;2023-04-24T09:35:54;17.70;;;9.32;;
30934;SDS011;51033;42.648;23.292;2023-04-24T09:38:29;15.25;;;8.63;;
30934;SDS011;51033;42.648;23.292;2023-04-24T09:40:58;17.08;;;8.32;;
30934;SDS011;51033;42.648;23.292;2023-04-24T09:43:26;15.27;;;8.85;;
30934;SDS011;51033;42.648;23.292;2023-04-24T09:45:52;14.68;;;8.48;;
30934;SDS011;51033;42.648;23.292;2023-04-24T09:48:34;13.10;;;8.57;;
30934;SDS011;51033;42.648;23.292;2023-04-24T09:51:02;12.43;;;8.98;;
30934;SDS011;51033;42.648;23.292;2023-04-24T09:53:29;8.93;;;7.20;;
30934;SDS011;51033;42.648;23.292;2023-04-24T09:55:56;14.55;;;8.27;;
30934;SDS011;51033;42.648;23.292;2023-04-24T09:58:27;11.32;;;7.30;;
30934;SDS011;51033;42.648;23.292;2023-04-24T10:00:53;12.07;;;7.50;;
30934;SDS011;51033;42.648;23.292;2023-04-24T10:03:20;9.95;;;7.45;;
30934;SDS011;51033;42.648;23.292;2023-04-24T10:05:46;16.05;;;7.15;;
30934;SDS011;51033;42.648;23.292;2023-04-24T10:08:12;23.25;;;7.93;;
30934;SDS011;51033;42.648;23.292;2023-04-24T10:10:40;15.05;;;6.97;;
30934;SDS011;51033;42.648;23.292;2023-04-24T10:13:07;13.18;;;7.22;;
30934;SDS011;51033;42.648;23.292;2023-04-24T10:15:35;8.57;;;6.90;;
30934;SDS011;51033;42.648;23.292;2023-04-24T10:18:04;8.60;;;6.72;;
30934;SDS011;51033;42.648;23.292;2023-04-24T10:20:31;12.13;;;6.53;;
30934;SDS011;51033;42.648;23.292;2023-04-24T10:22:57;8.07;;;5.82;;
30934;SDS011;51033;42.648;23.292;2023-04-24T10:25:25;11.48;;;6.05;;
30934;SDS011;51033;42.648;23.292;2023-04-24T10:27:52;8.60;;;5.95;;
30934;SDS011;51033;42.648;23.292;2023-04-24T10:30:22;7.90;;;5.78;;
30934;SDS011;51033;42.648;23.292;2023-04-24T10:32:48;6.90;;;5.55;;
30934;SDS011;51033;42.648;23.292;2023-04-24T10:35:14;9.82;;;5.82;;
30934;SDS011;51033;42.648;23.292;2023-04-24T10:37:50;12.48;;;6.15;;
30934;SDS011;51033;42.648;23.292;2023-04-24T10:40:26;8.57;;;5.68;;
30934;SDS011;51033;42.648;23.292;2023-04-24T10:42:56;9.15;;;6.13;;
30934;SDS011;51033;42.648;23.292;2023-04-24T10:45:22;8.73;;;5.55;;
30934;SDS011;51033;42.648;23.292;2023-04-24T10:48:31;8.00;;;5.15;;
30934;SDS011;51033;42.648;23.292;2023-04-24T10:53:19;6.72;;;4.85;;
30934;SDS011;51033;42.648;23.292;2023-04-24T10:58:22;12.57;;;5.35;;
30934;SDS011;51033;42.648;23.292;2023-04-24T11:00:55;8.05;;;5.45;;
30934;SDS011;51033;42.648;23.292;2023-04-24T11:03:28;7.03;;;4.15;;
30934;SDS011;51033;42.648;23.292;2023-04-24T11:13:25;8.90;;;4.78;;
30934;SDS011;51033;42.648;23.292;2023-04-24T11:16:29;8.15;;;4.50;;
30934;SDS011;51033;42.648;23.292;2023-04-24T11:21:43;4.85;;;4.30;;
30934;SDS011;51033;42.648;23.292;2023-04-24T11:26:56;4.57;;;2.97;;
30934;SDS011;51033;42.648;23.292;2023-04-24T11:29:22;2.70;;;2.47;;
30934;SDS011;51033;42.648;23.292;2023-04-24T11:32:14;3.60;;;3.30;;
30934;SDS011;51033;42.648;23.292;2023-04-24T11:34:45;6.50;;;3.28;;
30934;SDS011;51033;42.648;23.292;2023-04-24T11:37:11;5.60;;;3.72;;
30934;SDS011;51033;42.648;23.292;2023-04-24T11:39:37;4.45;;;3.80;;
30934;SDS011;51033;42.648;23.292;2023-04-24T11:42:03;5.95;;;4.43;;
30934;SDS011;51033;42.648;23.292;2023-04-24T11:44:28;5.00;;;4.60;;
30934;SDS011;51033;42.648;23.292;2023-04-24T11:46:56;5.22;;;4.72;;
30934;SDS011;51033;42.648;23.292;2023-04-24T11:49:22;8.30;;;5.10;;
30934;SDS011;51033;42.648;23.292;2023-04-24T11:51:47;5.85;;;4.47;;
30934;SDS011;51033;42.648;23.292;2023-04-24T11:54:13;8.38;;;5.30;;
30934;SDS011;51033;42.648;23.292;2023-04-24T11:56:38;5.18;;;4.53;;
30934;SDS011;51033;42.648;23.292;2023-04-24T11:59:04;5.90;;;5.38;;
30934;SDS011;51033;42.648;23.292;2023-04-24T12:01:29;5.13;;;4.65;;
30934;SDS011;51033;42.648;23.292;2023-04-24T12:04:07;6.05;;;4.68;;
30934;SDS011;51033;42.648;23.292;2023-04-24T12:06:32;4.13;;;3.72;;
30934;SDS011;51033;42.648;23.292;2023-04-24T12:08:58;7.00;;;4.70;;
30934;SDS011;51033;42.648;23.292;2023-04-24T12:11:23;4.53;;;4.13;;
30934;SDS011;51033;42.648;23.292;2023-04-24T12:13:49;7.90;;;4.40;;
30934;SDS011;51033;42.648;23.292;2023-04-24T12:16:14;4.82;;;4.43;;
30934;SDS011;51033;42.648;23.292;2023-04-24T12:18:42;4.60;;;4.20;;
30934;SDS011;51033;42.648;23.292;2023-04-24T12:21:21;4.32;;;3.88;;
30934;SDS011;51033;42.648;23.292;2023-04-24T12:23:49;3.47;;;3.17;;
30934;SDS011;51033;42.648;23.292;2023-04-24T12:26:16;5.28;;;4.00;;
30934;SDS011;51033;42.648;23.292;2023-04-24T12:28:45;5.10;;;3.45;;
30934;SDS011;51033;42.648;23.292;2023-04-24T12:31:13;3.63;;;2.90;;
30934;SDS011;51033;42.648;23.292;2023-04-24T12:33:38;4.10;;;3.70;;
30934;SDS011;51033;42.648;23.292;2023-04-24T12:36:04;5.15;;;4.13;;
30934;SDS011;51033;42.648;23.292;2023-04-24T12:38:31;4.20;;;3.80;;
30934;SDS011;51033;42.648;23.292;2023-04-24T12:41:08;37.17;;;4.63;;
30934;SDS011;51033;42.648;23.292;2023-04-24T12:43:36;4.95;;;4.45;;
30934;SDS011;51033;42.648;23.292;2023-04-24T12:46:02;5.25;;;4.75;;
30934;SDS011;51033;42.648;23.292;2023-04-24T12:48:28;5.95;;;4.43;;
30934;SDS011;51033;42.648;23.292;2023-04-24T12:50:56;8.98;;;4.38;;
30934;SDS011;51033;42.648;23.292;2023-04-24T12:53:25;5.20;;;4.55;;
30934;SDS011;51033;42.648;23.292;2023-04-24T12:55:51;4.55;;;3.95;;
30934;SDS011;51033;42.648;23.292;2023-04-24T12:58:20;5.57;;;4.50;;
30934;SDS011;51033;42.648;23.292;2023-04-24T13:00:46;5.20;;;4.38;;
30934;SDS011;51033;42.648;23.292;2023-04-24T13:03:12;6.82;;;4.40;;
30934;SDS011;51033;42.648;23.292;2023-04-24T13:05:38;4.97;;;3.97;;
30934;SDS011;51033;42.648;23.292;2023-04-24T13:08:03;6.20;;;3.88;;
30934;SDS011;51033;42.648;23.292;2023-04-24T13:10:29;5.75;;;4.88;;
30934;SDS011;51033;42.648;23.292;2023-04-24T13:12:54;4.57;;;4.03;;
30934;SDS011;51033;42.648;23.292;2023-04-24T13:15:20;5.55;;;4.22;;
30934;SDS011;51033;42.648;23.292;2023-04-24T13:17:45;6.18;;;4.28;;
30934;SDS011;51033;42.648;23.292;2023-04-24T13:20:11;7.03;;;4.35;;
30934;SDS011;51033;42.648;23.292;2023-04-24T13:22:36;4.93;;;4.07;;
30934;SDS011;51033;42.648;23.292;2023-04-24T13:25:02;5.85;;;4.05;;
30934;SDS011;51033;42.648;23.292;2023-04-24T13:27:28;4.57;;;3.72;;
30934;SDS011;51033;42.648;23.292;2023-04-24T13:29:54;8.20;;;4.22;;
30934;SDS011;51033;42.648;23.292;2023-04-24T13:32:19;4.45;;;4.05;;
30934;SDS011;51033;42.648;23.292;2023-04-24T13:34:45;4.53;;;3.80;;
30934;SDS011;51033;42.648;23.292;2023-04-24T13:37:11;4.60;;;4.15;;
30934;SDS011;51033;42.648;23.292;2023-04-24T13:39:36;4.75;;;4.35;;
30934;SDS011;51033;42.648;23.292;2023-04-24T13:42:02;8.88;;;4.13;;
30934;SDS011;51033;42.648;23.292;2023-04-24T13:44:27;11.20;;;4.13;;
30934;SDS011;51033;42.648;23.292;2023-04-24T13:46:53;5.22;;;4.15;;
30934;SDS011;51033;42.648;23.292;2023-04-24T13:49:21;5.45;;;4.20;;
30934;SDS011;51033;42.648;23.292;2023-04-24T13:51:49;8.68;;;4.40;;
30934;SDS011;51033;42.648;23.292;2023-04-24T13:54:15;5.07;;;3.80;;
30934;SDS011;51033;42.648;23.292;2023-04-24T13:56:41;6.82;;;4.25;;
30934;SDS011;51033;42.648;23.292;2023-04-24T13:59:06;4.30;;;3.90;;
30934;SDS011;51033;42.648;23.292;2023-04-24T14:01:32;5.55;;;4.18;;
30934;SDS011;51033;42.648;23.292;2023-04-24T14:03:57;9.13;;;4.13;;
30934;SDS011;51033;42.648;23.292;2023-04-24T14:06:23;6.03;;;4.03;;
30934;SDS011;51033;42.648;23.292;2023-04-24T14:08:48;5.78;;;3.30;;
30934;SDS011;51033;42.648;23.292;2023-04-24T14:11:15;7.00;;;3.72;;
30934;SDS011;51033;42.648;23.292;2023-04-24T14:13:41;8.80;;;3.67;;
30934;SDS011;51033;42.648;23.292;2023-04-24T14:16:08;4.63;;;3.25;;
30934;SDS011;51033;42.648;23.292;2023-04-24T14:18:34;3.92;;;3.58;;
30934;SDS011;51033;42.648;23.292;2023-04-24T14:21:01;5.13;;;3.72;;
30934;SDS011;51033;42.648;23.292;2023-04-24T14:23:27;4.82;;;4.05;;
30934;SDS011;51033;42.648;23.292;2023-04-24T14:25:52;4.43;;;3.80;;
30934;SDS011;51033;42.648;23.292;2023-04-24T14:28:21;5.28;;;3.45;;
30934;SDS011;51033;42.648;23.292;2023-04-24T14:30:47;7.47;;;3.40;;
30934;SDS011;51033;42.648;23.292;2023-04-24T14:33:15;6.03;;;3.70;;
30934;SDS011;51033;42.648;23.292;2023-04-24T14:35:43;5.88;;;4.18;;
30934;SDS011;51033;42.648;23.292;2023-04-24T14:38:09;11.93;;;5.57;;
30934;SDS011;51033;42.648;23.292;2023-04-24T14:40:35;6.03;;;3.97;;